sensor_id;sensor_type;location;lat;lon;timestamp;P1;durP1;ratioP1;P2;durP2;ratioP2
52025;SDS011;38041;40.058;18.328;2022-07-19T00:02:14;8.38;;;5.35;;
52025;SDS011;38041;40.058;18.328;2022-07-19T00:04:42;8.68;;;4.38;;
52025;SDS011;38041;40.058;18.328;2022-07-19T00:07:10;7.68;;;4.45;;
52025;SDS011;38041;40.058;18.328;2022-07-19T00:09:37;8.68;;;4.68;;
52025;SDS011;38041;40.058;18.328;2022-07-19T00:12:05;10.35;;;5.45;;
52025;SDS011;38041;40.058;18.328;2022-07-19T00:14:33;5.53;;;4.57;;
52025;SDS011;38041;40.058;18.328;2022-07-19T00:17:00;6.47;;;4.70;;
52025;SDS011;38041;40.058;18.328;2022-07-19T00:19:28;6.45;;;5.93;;
52025;SDS011;38041;40.058;18.328;2022-07-19T00:21:56;7.25;;;5.05;;
52025;SDS011;38041;40.058;18.328;2022-07-19T00:24:23;8.40;;;5.68;;
52025;SDS011;38041;40.058;18.328;2022-07-19T00:26:51;6.78;;;4.90;;
52025;SDS011;38041;40.058;18.328;2022-07-19T00:29:19;7.72;;;4.68;;
52025;SDS011;38041;40.058;18.328;2022-07-19T00:31:47;7.45;;;5.78;;
52025;SDS011;38041;40.058;18.328;2022-07-19T00:34:14;8.18;;;5.32;;
52025;SDS011;38041;40.058;18.328;2022-07-19T00:36:42;7.75;;;4.88;;
52025;SDS011;38041;40.058;18.328;2022-07-19T00:39:10;7.38;;;6.05;;
52025;SDS011;38041;40.058;18.328;2022-07-19T00:41:38;6.32;;;5.72;;
52025;SDS011;38041;40.058;18.328;2022-07-19T00:44:07;6.20;;;5.65;;
52025;SDS011;38041;40.058;18.328;2022-07-19T00:46:35;6.90;;;5.30;;
52025;SDS011;38041;40.058;18.328;2022-07-19T00:49:03;6.78;;;5.75;;
52025;SDS011;38041;40.058;18.328;2022-07-19T00:51:34;10.57;;;5.90;;
52025;SDS011;38041;40.058;18.328;2022-07-19T00:54:03;10.32;;;6.03;;
52025;SDS011;38041;40.058;18.328;2022-07-19T00:56:31;6.00;;;5.07;;
52025;SDS011;38041;40.058;18.328;2022-07-19T00:59:02;6.43;;;4.22;;
52025;SDS011;38041;40.058;18.328;2022-07-19T01:01:31;6.00;;;4.93;;
52025;SDS011;38041;40.058;18.328;2022-07-19T01:03:59;7.47;;;5.55;;
52025;SDS011;38041;40.058;18.328;2022-07-19T01:06:27;11.38;;;5.90;;
52025;SDS011;38041;40.058;18.328;2022-07-19T01:08:54;6.93;;;4.70;;
52025;SDS011;38041;40.058;18.328;2022-07-19T01:11:22;6.20;;;5.18;;
52025;SDS011;38041;40.058;18.328;2022-07-19T01:13:50;6.63;;;4.82;;
52025;SDS011;38041;40.058;18.328;2022-07-19T01:16:18;6.53;;;4.57;;
52025;SDS011;38041;40.058;18.328;2022-07-19T01:18:45;8.93;;;5.07;;
52025;SDS011;38041;40.058;18.328;2022-07-19T01:21:17;4.95;;;4.25;;
52025;SDS011;38041;40.058;18.328;2022-07-19T01:23:45;9.75;;;4.63;;
52025;SDS011;38041;40.058;18.328;2022-07-19T01:26:13;6.68;;;4.97;;
52025;SDS011;38041;40.058;18.328;2022-07-19T01:28:41;5.47;;;4.97;;
52025;SDS011;38041;40.058;18.328;2022-07-19T01:31:09;7.75;;;4.95;;
52025;SDS011;38041;40.058;18.328;2022-07-19T01:33:37;7.85;;;4.55;;
52025;SDS011;38041;40.058;18.328;2022-07-19T01:36:05;5.45;;;3.85;;
52025;SDS011;38041;40.058;18.328;2022-07-19T01:38:34;5.00;;;3.55;;
52025;SDS011;38041;40.058;18.328;2022-07-19T01:41:01;6.68;;;3.45;;
52025;SDS011;38041;40.058;18.328;2022-07-19T01:43:29;7.72;;;3.75;;
52025;SDS011;38041;40.058;18.328;2022-07-19T01:45:57;6.40;;;3.72;;
52025;SDS011;38041;40.058;18.328;2022-07-19T01:48:25;3.70;;;3.35;;
52025;SDS011;38041;40.058;18.328;2022-07-19T01:50:53;5.95;;;4.60;;
52025;SDS011;38041;40.058;18.328;2022-07-19T01:53:20;5.70;;;3.90;;
52025;SDS011;38041;40.058;18.328;2022-07-19T01:55:48;5.63;;;3.65;;
52025;SDS011;38041;40.058;18.328;2022-07-19T01:58:16;6.38;;;4.55;;
52025;SDS011;38041;40.058;18.328;2022-07-19T02:00:44;6.80;;;3.03;;
52025;SDS011;38041;40.058;18.328;2022-07-19T02:03:11;5.65;;;3.70;;
52025;SDS011;38041;40.058;18.328;2022-07-19T02:05:39;5.88;;;3.65;;
52025;SDS011;38041;40.058;18.328;2022-07-19T02:08:07;6.93;;;3.30;;
52025;SDS011;38041;40.058;18.328;2022-07-19T02:10:35;6.30;;;3.80;;
52025;SDS011;38041;40.058;18.328;2022-07-19T02:13:02;4.05;;;3.35;;
52025;SDS011;38041;40.058;18.328;2022-07-19T02:15:30;6.50;;;3.63;;
52025;SDS011;38041;40.058;18.328;2022-07-19T02:17:58;8.57;;;4.40;;
52025;SDS011;38041;40.058;18.328;2022-07-19T02:20:25;8.98;;;4.70;;
52025;SDS011;38041;40.058;18.328;2022-07-19T02:22:53;4.00;;;3.58;;
52025;SDS011;38041;40.058;18.328;2022-07-19T02:25:21;6.07;;;3.03;;
52025;SDS011;38041;40.058;18.328;2022-07-19T02:27:50;5.57;;;2.80;;
52025;SDS011;38041;40.058;18.328;2022-07-19T02:30:17;5.70;;;2.78;;
52025;SDS011;38041;40.058;18.328;2022-07-19T02:32:45;5.40;;;2.90;;
52025;SDS011;38041;40.058;18.328;2022-07-19T02:35:13;5.28;;;2.75;;
52025;SDS011;38041;40.058;18.328;2022-07-19T02:37:41;3.95;;;2.30;;
52025;SDS011;38041;40.058;18.328;2022-07-19T02:40:08;3.97;;;2.42;;
52025;SDS011;38041;40.058;18.328;2022-07-19T02:42:37;9.30;;;2.72;;
52025;SDS011;38041;40.058;18.328;2022-07-19T02:45:05;3.40;;;2.38;;
52025;SDS011;38041;40.058;18.328;2022-07-19T02:47:32;3.42;;;2.47;;
52025;SDS011;38041;40.058;18.328;2022-07-19T02:50:00;6.18;;;3.22;;
52025;SDS011;38041;40.058;18.328;2022-07-19T02:52:28;5.50;;;2.85;;
52025;SDS011;38041;40.058;18.328;2022-07-19T02:54:57;7.20;;;2.88;;
52025;SDS011;38041;40.058;18.328;2022-07-19T02:57:24;4.43;;;2.40;;
52025;SDS011;38041;40.058;18.328;2022-07-19T02:59:52;3.05;;;2.75;;
52025;SDS011;38041;40.058;18.328;2022-07-19T03:02:20;8.77;;;3.88;;
52025;SDS011;38041;40.058;18.328;2022-07-19T03:04:47;5.07;;;2.92;;
52025;SDS011;38041;40.058;18.328;2022-07-19T03:07:15;4.68;;;3.00;;
52025;SDS011;38041;40.058;18.328;2022-07-19T03:09:43;4.05;;;2.97;;
52025;SDS011;38041;40.058;18.328;2022-07-19T03:12:12;11.75;;;2.78;;
52025;SDS011;38041;40.058;18.328;2022-07-19T03:14:40;7.28;;;2.92;;
52025;SDS011;38041;40.058;18.328;2022-07-19T03:17:08;9.85;;;3.40;;
52025;SDS011;38041;40.058;18.328;2022-07-19T03:19:36;3.72;;;3.33;;
52025;SDS011;38041;40.058;18.328;2022-07-19T03:22:03;4.82;;;3.15;;
52025;SDS011;38041;40.058;18.328;2022-07-19T03:24:31;7.10;;;2.63;;
52025;SDS011;38041;40.058;18.328;2022-07-19T03:26:59;4.97;;;2.65;;
52025;SDS011;38041;40.058;18.328;2022-07-19T03:29:26;6.72;;;2.40;;
52025;SDS011;38041;40.058;18.328;2022-07-19T03:31:55;6.20;;;2.78;;
52025;SDS011;38041;40.058;18.328;2022-07-19T03:34:23;5.30;;;2.95;;
52025;SDS011;38041;40.058;18.328;2022-07-19T03:36:51;4.03;;;2.65;;
52025;SDS011;38041;40.058;18.328;2022-07-19T03:39:18;9.07;;;3.53;;
52025;SDS011;38041;40.058;18.328;2022-07-19T03:41:46;8.82;;;4.15;;
52025;SDS011;38041;40.058;18.328;2022-07-19T03:44:14;5.50;;;3.97;;
52025;SDS011;38041;40.058;18.328;2022-07-19T03:46:41;11.82;;;10.52;;
52025;SDS011;38041;40.058;18.328;2022-07-19T03:49:09;10.98;;;9.63;;
52025;SDS011;38041;40.058;18.328;2022-07-19T03:51:37;9.73;;;7.93;;
52025;SDS011;38041;40.058;18.328;2022-07-19T03:54:04;6.88;;;5.20;;
52025;SDS011;38041;40.058;18.328;2022-07-19T03:56:32;9.25;;;4.25;;
52025;SDS011;38041;40.058;18.328;2022-07-19T03:59:00;11.45;;;3.75;;
52025;SDS011;38041;40.058;18.328;2022-07-19T04:01:28;6.78;;;3.63;;
52025;SDS011;38041;40.058;18.328;2022-07-19T04:03:55;10.70;;;3.63;;
52025;SDS011;38041;40.058;18.328;2022-07-19T04:06:23;7.22;;;2.95;;
52025;SDS011;38041;40.058;18.328;2022-07-19T04:08:51;9.80;;;4.78;;
52025;SDS011;38041;40.058;18.328;2022-07-19T04:11:18;7.30;;;3.17;;
52025;SDS011;38041;40.058;18.328;2022-07-19T04:13:46;5.43;;;2.95;;
52025;SDS011;38041;40.058;18.328;2022-07-19T04:16:14;6.57;;;3.17;;
52025;SDS011;38041;40.058;18.328;2022-07-19T04:18:42;4.90;;;3.80;;
52025;SDS011;38041;40.058;18.328;2022-07-19T04:21:09;3.78;;;3.13;;
52025;SDS011;38041;40.058;18.328;2022-07-19T04:23:37;6.07;;;2.97;;
52025;SDS011;38041;40.058;18.328;2022-07-19T04:26:05;3.72;;;2.53;;
52025;SDS011;38041;40.058;18.328;2022-07-19T04:28:32;7.05;;;3.67;;
52025;SDS011;38041;40.058;18.328;2022-07-19T04:31:00;9.23;;;3.00;;
52025;SDS011;38041;40.058;18.328;2022-07-19T04:33:28;6.53;;;3.63;;
52025;SDS011;38041;40.058;18.328;2022-07-19T04:35:56;4.30;;;2.30;;
52025;SDS011;38041;40.058;18.328;2022-07-19T04:38:23;6.38;;;3.45;;
52025;SDS011;38041;40.058;18.328;2022-07-19T04:40:51;7.53;;;3.60;;
52025;SDS011;38041;40.058;18.328;2022-07-19T04:43:22;9.35;;;3.15;;
52025;SDS011;38041;40.058;18.328;2022-07-19T04:45:50;4.70;;;3.10;;
52025;SDS011;38041;40.058;18.328;2022-07-19T04:48:18;7.75;;;3.50;;
52025;SDS011;38041;40.058;18.328;2022-07-19T04:50:46;11.25;;;3.45;;
52025;SDS011;38041;40.058;18.328;2022-07-19T04:53:13;10.60;;;4.88;;
52025;SDS011;38041;40.058;18.328;2022-07-19T04:55:41;7.60;;;3.20;;
52025;SDS011;38041;40.058;18.328;2022-07-19T04:58:09;11.55;;;2.88;;
52025;SDS011;38041;40.058;18.328;2022-07-19T05:00:36;10.05;;;2.30;;
52025;SDS011;38041;40.058;18.328;2022-07-19T05:03:04;6.30;;;2.42;;
52025;SDS011;38041;40.058;18.328;2022-07-19T05:05:32;9.63;;;3.13;;
52025;SDS011;38041;40.058;18.328;2022-07-19T05:08:00;7.80;;;3.05;;
52025;SDS011;38041;40.058;18.328;2022-07-19T05:10:27;8.73;;;2.42;;
52025;SDS011;38041;40.058;18.328;2022-07-19T05:12:55;7.38;;;2.35;;
52025;SDS011;38041;40.058;18.328;2022-07-19T05:37:01;11.73;;;2.38;;
52025;SDS011;38041;40.058;18.328;2022-07-19T05:39:29;8.77;;;2.45;;
52025;SDS011;38041;40.058;18.328;2022-07-19T05:41:57;9.00;;;1.98;;
52025;SDS011;38041;40.058;18.328;2022-07-19T05:44:25;11.25;;;1.88;;
52025;SDS011;38041;40.058;18.328;2022-07-19T05:46:52;5.80;;;3.38;;
52025;SDS011;38041;40.058;18.328;2022-07-19T05:49:20;4.28;;;1.75;;
52025;SDS011;38041;40.058;18.328;2022-07-19T05:51:48;12.20;;;1.60;;
52025;SDS011;38041;40.058;18.328;2022-07-19T05:54:16;7.95;;;1.60;;
52025;SDS011;38041;40.058;18.328;2022-07-19T05:56:44;13.77;;;6.88;;
52025;SDS011;38041;40.058;18.328;2022-07-19T05:59:12;7.03;;;2.92;;
52025;SDS011;38041;40.058;18.328;2022-07-19T06:01:39;7.60;;;5.32;;
52025;SDS011;38041;40.058;18.328;2022-07-19T06:04:07;8.07;;;2.70;;
52025;SDS011;38041;40.058;18.328;2022-07-19T06:06:35;6.22;;;2.15;;
52025;SDS011;38041;40.058;18.328;2022-07-19T06:09:03;6.82;;;0.85;;
52025;SDS011;38041;40.058;18.328;2022-07-19T06:11:31;5.38;;;1.77;;
52025;SDS011;38041;40.058;18.328;2022-07-19T06:13:59;4.75;;;2.85;;
52025;SDS011;38041;40.058;18.328;2022-07-19T06:16:27;4.95;;;1.38;;
52025;SDS011;38041;40.058;18.328;2022-07-19T06:18:55;5.40;;;1.60;;
52025;SDS011;38041;40.058;18.328;2022-07-19T06:21:22;6.68;;;1.60;;
52025;SDS011;38041;40.058;18.328;2022-07-19T06:23:50;12.68;;;1.17;;
52025;SDS011;38041;40.058;18.328;2022-07-19T06:26:18;8.48;;;1.25;;
52025;SDS011;38041;40.058;18.328;2022-07-19T06:28:46;10.82;;;1.25;;
52025;SDS011;38041;40.058;18.328;2022-07-19T06:31:14;4.70;;;1.58;;
52025;SDS011;38041;40.058;18.328;2022-07-19T06:33:44;11.07;;;1.83;;
52025;SDS011;38041;40.058;18.328;2022-07-19T06:36:12;13.40;;;1.40;;
52025;SDS011;38041;40.058;18.328;2022-07-19T06:38:40;9.63;;;1.20;;
52025;SDS011;38041;40.058;18.328;2022-07-19T06:41:11;4.10;;;0.98;;
52025;SDS011;38041;40.058;18.328;2022-07-19T06:43:39;9.23;;;1.02;;
52025;SDS011;38041;40.058;18.328;2022-07-19T06:46:07;9.80;;;1.48;;
52025;SDS011;38041;40.058;18.328;2022-07-19T06:48:35;6.72;;;1.05;;
52025;SDS011;38041;40.058;18.328;2022-07-19T06:51:02;11.43;;;1.20;;
52025;SDS011;38041;40.058;18.328;2022-07-19T06:53:30;4.97;;;1.00;;
52025;SDS011;38041;40.058;18.328;2022-07-19T06:55:58;10.63;;;2.90;;
52025;SDS011;38041;40.058;18.328;2022-07-19T06:58:26;5.95;;;1.02;;
52025;SDS011;38041;40.058;18.328;2022-07-19T07:00:56;19.33;;;3.72;;
52025;SDS011;38041;40.058;18.328;2022-07-19T07:03:24;11.25;;;1.88;;
52025;SDS011;38041;40.058;18.328;2022-07-19T07:05:51;8.00;;;1.70;;
52025;SDS011;38041;40.058;18.328;2022-07-19T07:08:19;4.47;;;1.45;;
52025;SDS011;38041;40.058;18.328;2022-07-19T07:10:47;23.15;;;2.28;;
52025;SDS011;38041;40.058;18.328;2022-07-19T07:13:15;5.70;;;1.10;;
52025;SDS011;38041;40.058;18.328;2022-07-19T07:15:42;2.67;;;1.17;;
52025;SDS011;38041;40.058;18.328;2022-07-19T07:18:10;6.07;;;2.13;;
52025;SDS011;38041;40.058;18.328;2022-07-19T07:20:38;6.18;;;1.35;;
52025;SDS011;38041;40.058;18.328;2022-07-19T07:23:06;7.53;;;1.52;;
52025;SDS011;38041;40.058;18.328;2022-07-19T07:25:34;5.47;;;1.52;;
52025;SDS011;38041;40.058;18.328;2022-07-19T07:28:01;9.93;;;2.17;;
52025;SDS011;38041;40.058;18.328;2022-07-19T07:30:29;8.73;;;1.48;;
52025;SDS011;38041;40.058;18.328;2022-07-19T07:32:57;6.30;;;1.65;;
52025;SDS011;38041;40.058;18.328;2022-07-19T07:35:24;6.63;;;1.63;;
52025;SDS011;38041;40.058;18.328;2022-07-19T07:37:52;4.13;;;1.88;;
52025;SDS011;38041;40.058;18.328;2022-07-19T07:40:20;2.90;;;1.38;;
52025;SDS011;38041;40.058;18.328;2022-07-19T07:42:48;6.88;;;1.52;;
52025;SDS011;38041;40.058;18.328;2022-07-19T07:45:16;4.72;;;1.42;;
52025;SDS011;38041;40.058;18.328;2022-07-19T07:47:43;5.57;;;1.42;;
52025;SDS011;38041;40.058;18.328;2022-07-19T07:50:11;5.57;;;1.10;;
52025;SDS011;38041;40.058;18.328;2022-07-19T07:52:39;5.95;;;1.52;;
52025;SDS011;38041;40.058;18.328;2022-07-19T07:55:07;7.93;;;2.17;;
52025;SDS011;38041;40.058;18.328;2022-07-19T07:57:53;6.93;;;2.42;;
52025;SDS011;38041;40.058;18.328;2022-07-19T08:00:21;3.45;;;3.15;;
52025;SDS011;38041;40.058;18.328;2022-07-19T08:02:48;6.45;;;1.55;;
52025;SDS011;38041;40.058;18.328;2022-07-19T08:05:19;6.68;;;1.02;;
52025;SDS011;38041;40.058;18.328;2022-07-19T08:07:48;3.97;;;1.48;;
52025;SDS011;38041;40.058;18.328;2022-07-19T08:10:17;3.67;;;1.42;;
52025;SDS011;38041;40.058;18.328;2022-07-19T08:12:45;4.35;;;1.00;;
52025;SDS011;38041;40.058;18.328;2022-07-19T08:15:13;2.30;;;1.35;;
52025;SDS011;38041;40.058;18.328;2022-07-19T08:17:41;7.43;;;3.80;;
52025;SDS011;38041;40.058;18.328;2022-07-19T08:20:08;23.70;;;7.35;;
52025;SDS011;38041;40.058;18.328;2022-07-19T08:22:36;19.70;;;12.50;;
52025;SDS011;38041;40.058;18.328;2022-07-19T08:25:04;20.00;;;14.50;;
52025;SDS011;38041;40.058;18.328;2022-07-19T08:27:32;8.15;;;3.15;;
52025;SDS011;38041;40.058;18.328;2022-07-19T08:30:00;7.25;;;5.03;;
52025;SDS011;38041;40.058;18.328;2022-07-19T08:32:33;12.35;;;7.07;;
52025;SDS011;38041;40.058;18.328;2022-07-19T08:35:01;4.95;;;3.17;;
52025;SDS011;38041;40.058;18.328;2022-07-19T08:37:29;9.32;;;6.05;;
52025;SDS011;38041;40.058;18.328;2022-07-19T08:39:56;10.27;;;5.40;;
52025;SDS011;38041;40.058;18.328;2022-07-19T08:42:24;8.15;;;5.30;;
52025;SDS011;38041;40.058;18.328;2022-07-19T08:44:54;10.65;;;5.93;;
52025;SDS011;38041;40.058;18.328;2022-07-19T08:47:22;4.85;;;3.17;;
52025;SDS011;38041;40.058;18.328;2022-07-19T08:49:51;9.27;;;7.20;;
52025;SDS011;38041;40.058;18.328;2022-07-19T08:52:19;4.47;;;3.00;;
52025;SDS011;38041;40.058;18.328;2022-07-19T08:54:47;4.90;;;2.97;;
52025;SDS011;38041;40.058;18.328;2022-07-19T08:57:15;9.95;;;4.82;;
52025;SDS011;38041;40.058;18.328;2022-07-19T09:00:03;7.40;;;2.97;;
52025;SDS011;38041;40.058;18.328;2022-07-19T09:02:33;12.23;;;2.30;;
52025;SDS011;38041;40.058;18.328;2022-07-19T09:05:02;5.15;;;3.47;;
52025;SDS011;38041;40.058;18.328;2022-07-19T09:07:31;3.72;;;2.35;;
52025;SDS011;38041;40.058;18.328;2022-07-19T09:10:15;12.88;;;5.25;;
52025;SDS011;38041;40.058;18.328;2022-07-19T09:13:16;18.25;;;9.90;;
52025;SDS011;38041;40.058;18.328;2022-07-19T09:15:47;16.48;;;11.77;;
52025;SDS011;38041;40.058;18.328;2022-07-19T09:20:44;14.52;;;10.75;;
52025;SDS011;38041;40.058;18.328;2022-07-19T09:23:12;21.65;;;16.98;;
52025;SDS011;38041;40.058;18.328;2022-07-19T09:25:49;33.72;;;30.10;;
52025;SDS011;38041;40.058;18.328;2022-07-19T09:28:17;23.90;;;21.00;;
52025;SDS011;38041;40.058;18.328;2022-07-19T09:30:47;18.35;;;14.02;;
52025;SDS011;38041;40.058;18.328;2022-07-19T09:33:16;23.67;;;20.48;;
52025;SDS011;38041;40.058;18.328;2022-07-19T09:35:45;13.23;;;11.93;;
52025;SDS011;38041;40.058;18.328;2022-07-19T09:38:16;7.88;;;6.88;;
52025;SDS011;38041;40.058;18.328;2022-07-19T09:40:46;12.05;;;10.90;;
52025;SDS011;38041;40.058;18.328;2022-07-19T09:43:14;14.45;;;8.77;;
52025;SDS011;38041;40.058;18.328;2022-07-19T09:45:51;8.27;;;7.05;;
52025;SDS011;38041;40.058;18.328;2022-07-19T09:48:19;8.35;;;6.28;;
52025;SDS011;38041;40.058;18.328;2022-07-19T09:50:47;7.72;;;5.60;;
52025;SDS011;38041;40.058;18.328;2022-07-19T09:53:15;6.57;;;3.47;;
52025;SDS011;38041;40.058;18.328;2022-07-19T09:55:43;9.65;;;7.97;;
52025;SDS011;38041;40.058;18.328;2022-07-19T09:58:11;7.00;;;3.95;;
52025;SDS011;38041;40.058;18.328;2022-07-19T10:00:39;6.18;;;5.38;;
52025;SDS011;38041;40.058;18.328;2022-07-19T10:03:08;6.25;;;3.03;;
52025;SDS011;38041;40.058;18.328;2022-07-19T10:05:36;4.85;;;2.67;;
52025;SDS011;38041;40.058;18.328;2022-07-19T10:08:05;11.82;;;10.57;;
52025;SDS011;38041;40.058;18.328;2022-07-19T10:10:33;12.23;;;10.18;;
52025;SDS011;38041;40.058;18.328;2022-07-19T10:13:00;11.15;;;10.02;;
52025;SDS011;38041;40.058;18.328;2022-07-19T10:15:31;19.88;;;13.13;;
52025;SDS011;38041;40.058;18.328;2022-07-19T10:18:12;13.57;;;10.38;;
52025;SDS011;38041;40.058;18.328;2022-07-19T10:20:44;23.52;;;20.95;;
52025;SDS011;38041;40.058;18.328;2022-07-19T10:23:13;34.83;;;31.13;;
52025;SDS011;38041;40.058;18.328;2022-07-19T10:25:45;25.10;;;22.38;;
52025;SDS011;38041;40.058;18.328;2022-07-19T10:28:30;33.50;;;27.75;;
52025;SDS011;38041;40.058;18.328;2022-07-19T10:31:23;14.43;;;10.50;;
52025;SDS011;38041;40.058;18.328;2022-07-19T10:33:58;25.50;;;19.65;;
52025;SDS011;38041;40.058;18.328;2022-07-19T10:36:45;16.00;;;10.55;;
52025;SDS011;38041;40.058;18.328;2022-07-19T10:44:33;12.40;;;9.13;;
52025;SDS011;38041;40.058;18.328;2022-07-19T10:47:01;6.68;;;4.43;;
52025;SDS011;38041;40.058;18.328;2022-07-19T10:49:44;9.73;;;7.13;;
52025;SDS011;38041;40.058;18.328;2022-07-19T10:57:53;67.22;;;11.18;;
52025;SDS011;38041;40.058;18.328;2022-07-19T11:00:28;18.00;;;4.75;;
52025;SDS011;38041;40.058;18.328;2022-07-19T11:05:47;8.30;;;5.68;;
52025;SDS011;38041;40.058;18.328;2022-07-19T11:08:16;11.13;;;9.77;;
52025;SDS011;38041;40.058;18.328;2022-07-19T11:10:44;2.78;;;2.47;;
52025;SDS011;38041;40.058;18.328;2022-07-19T11:13:15;10.23;;;7.25;;
52025;SDS011;38041;40.058;18.328;2022-07-19T11:15:53;5.25;;;3.83;;
52025;SDS011;38041;40.058;18.328;2022-07-19T11:18:21;5.93;;;3.88;;
52025;SDS011;38041;40.058;18.328;2022-07-19T11:20:49;2.97;;;1.35;;
52025;SDS011;38041;40.058;18.328;2022-07-19T11:23:17;4.03;;;1.15;;
52025;SDS011;38041;40.058;18.328;2022-07-19T11:25:45;5.82;;;2.42;;
52025;SDS011;38041;40.058;18.328;2022-07-19T11:28:22;2.97;;;2.78;;
52025;SDS011;38041;40.058;18.328;2022-07-19T11:30:50;10.02;;;4.65;;
52025;SDS011;38041;40.058;18.328;2022-07-19T11:33:19;2.30;;;0.73;;
52025;SDS011;38041;40.058;18.328;2022-07-19T11:38:20;7.18;;;3.63;;
52025;SDS011;38041;40.058;18.328;2022-07-19T11:40:48;6.00;;;3.25;;
52025;SDS011;38041;40.058;18.328;2022-07-19T11:43:16;2.85;;;2.45;;
52025;SDS011;38041;40.058;18.328;2022-07-19T11:45:45;7.93;;;2.08;;
52025;SDS011;38041;40.058;18.328;2022-07-19T11:48:26;5.78;;;1.88;;
52025;SDS011;38041;40.058;18.328;2022-07-19T11:50:58;3.38;;;2.25;;
52025;SDS011;38041;40.058;18.328;2022-07-19T11:53:27;3.80;;;1.50;;
52025;SDS011;38041;40.058;18.328;2022-07-19T11:55:55;2.28;;;0.70;;
52025;SDS011;38041;40.058;18.328;2022-07-19T11:58:23;2.65;;;1.80;;
52025;SDS011;38041;40.058;18.328;2022-07-19T12:00:51;2.63;;;0.70;;
52025;SDS011;38041;40.058;18.328;2022-07-19T12:03:19;3.05;;;0.85;;
52025;SDS011;38041;40.058;18.328;2022-07-19T12:05:55;7.13;;;3.85;;
52025;SDS011;38041;40.058;18.328;2022-07-19T12:08:33;22.88;;;6.72;;
52025;SDS011;38041;40.058;18.328;2022-07-19T12:11:14;20.40;;;5.63;;
52025;SDS011;38041;40.058;18.328;2022-07-19T12:13:42;5.18;;;1.48;;
52025;SDS011;38041;40.058;18.328;2022-07-19T12:16:13;3.35;;;0.95;;
52025;SDS011;38041;40.058;18.328;2022-07-19T12:18:48;2.17;;;1.25;;
52025;SDS011;38041;40.058;18.328;2022-07-19T12:26:28;3.03;;;0.90;;
52025;SDS011;38041;40.058;18.328;2022-07-19T12:30:02;3.03;;;1.40;;
52025;SDS011;38041;40.058;18.328;2022-07-19T12:32:08;3.50;;;1.10;;
52025;SDS011;38041;40.058;18.328;2022-07-19T12:40:00;3.97;;;0.90;;
52025;SDS011;38041;40.058;18.328;2022-07-19T12:42:38;4.00;;;2.22;;
52025;SDS011;38041;40.058;18.328;2022-07-19T12:45:07;5.90;;;2.63;;
52025;SDS011;38041;40.058;18.328;2022-07-19T12:47:35;3.00;;;2.15;;
52025;SDS011;38041;40.058;18.328;2022-07-19T12:50:03;4.78;;;2.72;;
52025;SDS011;38041;40.058;18.328;2022-07-19T12:52:36;3.58;;;2.92;;
52025;SDS011;38041;40.058;18.328;2022-07-19T12:55:04;3.05;;;1.80;;
52025;SDS011;38041;40.058;18.328;2022-07-19T12:57:31;6.10;;;3.33;;
52025;SDS011;38041;40.058;18.328;2022-07-19T13:00:01;42.88;;;27.25;;
52025;SDS011;38041;40.058;18.328;2022-07-19T13:02:29;23.45;;;14.98;;
52025;SDS011;38041;40.058;18.328;2022-07-19T13:04:57;18.35;;;11.98;;
52025;SDS011;38041;40.058;18.328;2022-07-19T13:07:25;11.90;;;7.10;;
52025;SDS011;38041;40.058;18.328;2022-07-19T13:09:53;12.55;;;8.55;;
52025;SDS011;38041;40.058;18.328;2022-07-19T13:12:20;6.97;;;5.30;;
52025;SDS011;38041;40.058;18.328;2022-07-19T13:14:48;11.05;;;5.47;;
52025;SDS011;38041;40.058;18.328;2022-07-19T13:17:16;5.05;;;4.00;;
52025;SDS011;38041;40.058;18.328;2022-07-19T13:19:44;3.08;;;2.33;;
52025;SDS011;38041;40.058;18.328;2022-07-19T13:22:13;3.63;;;2.25;;
52025;SDS011;38041;40.058;18.328;2022-07-19T13:24:41;9.55;;;3.58;;
52025;SDS011;38041;40.058;18.328;2022-07-19T13:27:29;2.13;;;0.95;;
52025;SDS011;38041;40.058;18.328;2022-07-19T13:29:57;5.18;;;1.85;;
52025;SDS011;38041;40.058;18.328;2022-07-19T13:32:25;3.90;;;1.92;;
52025;SDS011;38041;40.058;18.328;2022-07-19T13:34:53;5.00;;;3.58;;
52025;SDS011;38041;40.058;18.328;2022-07-19T13:37:20;3.05;;;1.10;;
52025;SDS011;38041;40.058;18.328;2022-07-19T13:39:48;4.60;;;1.42;;
52025;SDS011;38041;40.058;18.328;2022-07-19T13:42:16;3.22;;;1.30;;
52025;SDS011;38041;40.058;18.328;2022-07-19T13:44:44;2.97;;;2.13;;
52025;SDS011;38041;40.058;18.328;2022-07-19T13:47:11;4.35;;;1.92;;
52025;SDS011;38041;40.058;18.328;2022-07-19T13:49:39;2.50;;;1.08;;
52025;SDS011;38041;40.058;18.328;2022-07-19T13:52:07;3.70;;;2.13;;
52025;SDS011;38041;40.058;18.328;2022-07-19T13:54:35;3.63;;;1.67;;
52025;SDS011;38041;40.058;18.328;2022-07-19T13:57:03;5.28;;;1.35;;
52025;SDS011;38041;40.058;18.328;2022-07-19T13:59:31;4.68;;;1.40;;
52025;SDS011;38041;40.058;18.328;2022-07-19T14:02:00;5.47;;;1.30;;
52025;SDS011;38041;40.058;18.328;2022-07-19T14:04:29;6.00;;;1.25;;
52025;SDS011;38041;40.058;18.328;2022-07-19T14:06:57;4.18;;;1.50;;
52025;SDS011;38041;40.058;18.328;2022-07-19T14:09:25;2.97;;;1.58;;
52025;SDS011;38041;40.058;18.328;2022-07-19T14:11:53;3.75;;;1.98;;
52025;SDS011;38041;40.058;18.328;2022-07-19T14:14:21;4.25;;;1.58;;
52025;SDS011;38041;40.058;18.328;2022-07-19T14:16:49;1.27;;;1.00;;
52025;SDS011;38041;40.058;18.328;2022-07-19T14:19:17;3.35;;;1.58;;
52025;SDS011;38041;40.058;18.328;2022-07-19T14:21:45;1.67;;;1.05;;
52025;SDS011;38041;40.058;18.328;2022-07-19T14:24:12;2.20;;;1.02;;
52025;SDS011;38041;40.058;18.328;2022-07-19T14:26:40;2.08;;;1.42;;
52025;SDS011;38041;40.058;18.328;2022-07-19T14:29:08;3.40;;;1.42;;
52025;SDS011;38041;40.058;18.328;2022-07-19T14:31:35;2.65;;;1.23;;
52025;SDS011;38041;40.058;18.328;2022-07-19T14:34:07;3.17;;;1.10;;
52025;SDS011;38041;40.058;18.328;2022-07-19T14:36:55;4.72;;;1.33;;
52025;SDS011;38041;40.058;18.328;2022-07-19T14:39:22;3.05;;;1.30;;
52025;SDS011;38041;40.058;18.328;2022-07-19T14:41:50;17.35;;;4.00;;
52025;SDS011;38041;40.058;18.328;2022-07-19T14:44:18;19.20;;;17.25;;
52025;SDS011;38041;40.058;18.328;2022-07-19T14:46:46;19.20;;;17.38;;
52025;SDS011;38041;40.058;18.328;2022-07-19T14:49:14;42.38;;;37.33;;
52025;SDS011;38041;40.058;18.328;2022-07-19T14:51:42;59.13;;;52.67;;
52025;SDS011;38041;40.058;18.328;2022-07-19T14:54:09;33.15;;;29.60;;
52025;SDS011;38041;40.058;18.328;2022-07-19T14:56:39;25.20;;;22.58;;
52025;SDS011;38041;40.058;18.328;2022-07-19T14:59:07;56.22;;;50.53;;
52025;SDS011;38041;40.058;18.328;2022-07-19T15:01:34;69.47;;;62.58;;
52025;SDS011;38041;40.058;18.328;2022-07-19T15:04:02;97.93;;;87.50;;
52025;SDS011;38041;40.058;18.328;2022-07-19T15:06:30;119.68;;;107.70;;
52025;SDS011;38041;40.058;18.328;2022-07-19T15:09:01;86.80;;;77.97;;
52025;SDS011;38041;40.058;18.328;2022-07-19T15:11:28;53.95;;;48.38;;
52025;SDS011;38041;40.058;18.328;2022-07-19T15:13:59;95.63;;;85.93;;
52025;SDS011;38041;40.058;18.328;2022-07-19T15:16:27;26.48;;;23.77;;
52025;SDS011;38041;40.058;18.328;2022-07-19T15:18:55;49.10;;;44.08;;
52025;SDS011;38041;40.058;18.328;2022-07-19T15:21:23;54.50;;;48.90;;
52025;SDS011;38041;40.058;18.328;2022-07-19T15:23:51;56.70;;;50.72;;
52025;SDS011;38041;40.058;18.328;2022-07-19T15:26:22;24.85;;;22.30;;
52025;SDS011;38041;40.058;18.328;2022-07-19T15:28:49;24.35;;;21.33;;
52025;SDS011;38041;40.058;18.328;2022-07-19T15:31:17;52.25;;;46.55;;